OIIK  Qazvin Airport

Add Bookmark

Qazvin, Iran

Status
Operational
Latitude Longitude
36° 14' 24" N 50° 2' 49" E
36.240101 50.047100
Local (DST + 5) UTC (GMT + 4)
Nov 24, 2014 06:21 Nov 24, 2014 14:51
Sunrise-Sunset Local UTC
Begin Civil Twilight 06:26 02:56
Sunrise 06:54 03:24
Sunset 04:58 13:28
End Civil Twilight 05:26 13:56

Current Weather

METAR Observed VFR
OIIK 241400Z 00000KT 9999 FEW040 BKN100 07/03 Q1019 Mon, Nov 24, 2014 @ 14:00 UTC
(51 Minutes ago)
Visual Flight Rules
Wind Visibility Clouds Conditions
Calm 10 km or more
  • Few at 4,000' AGL
  • Broken at 10,000' AGL
  • No significant weather
Temperatures Readings Precipitation
Current Temp 7°C (45°F)
Dewpoint 3°C (37°F)
Humidity 76%
Altimeter 30.09"Hg
Sea Level Pressure 1019mb
Field Elevation 4192.91'
None Recorded

Additional weather within a 92.6km radius of OIIK

Map ICAO Location
OIIP 87km S (126°)

24 Hour Weather History

Loading
-

24 Hour Weather Graphs

Loading
-

CheckWX.com is intended as a tool to help pilots better visualize weather data. It is not intended as a substitute for an official weather briefing obtained from a Flight Service Station. CheckWX.com does not meet the FAA requirements for an official pre-flight weather briefing. Therefore, it's important that pilots still call and obtain an official FSS pre-flight weather briefing.